createdAt,value
2023-01-26T17:01:48.842Z,138.67
2023-01-26T17:03:20.945Z,139.00
2023-01-26T17:04:53.029Z,138.33
2023-01-26T17:06:24.952Z,132.67
2023-01-26T17:07:56.883Z,141.33
2023-01-26T17:09:29.024Z,130.00
2023-01-26T17:11:02.910Z,131.67
2023-01-26T17:12:35.127Z,136.67
2023-01-26T17:14:07.473Z,137.67
2023-01-26T17:15:39.344Z,134.67
2023-01-26T17:17:11.402Z,121.75
2023-01-26T17:18:45.351Z,119.25
2023-01-26T17:20:19.547Z,115.75
2023-01-26T17:21:51.888Z,110.75
2023-01-26T17:23:23.730Z,101.50
2023-01-26T17:24:56.308Z,107.25
2023-01-26T17:26:28.479Z,103.25
2023-01-26T17:28:00.717Z,98.00
2023-01-26T17:29:33.860Z,93.00
2023-01-26T17:31:19.507Z,99.50
2023-01-26T17:32:51.610Z,200.50
2023-01-26T17:34:23.510Z,157.25
2023-01-26T17:36:02.405Z,138.67
2023-01-26T17:37:34.461Z,137.67
2023-01-26T17:39:06.465Z,135.00
2023-01-26T17:40:38.633Z,128.67
2023-01-26T17:42:10.675Z,129.33
2023-01-26T17:43:42.564Z,130.33
2023-01-26T17:45:14.596Z,136.67
2023-01-26T17:46:46.555Z,132.33
2023-01-26T17:48:18.700Z,131.33
2023-01-26T17:49:50.619Z,139.67
2023-01-26T17:51:23.411Z,142.33
2023-01-26T17:52:55.273Z,141.67
2023-01-26T17:54:27.590Z,149.00
2023-01-26T17:55:59.710Z,140.67
2023-01-26T17:57:31.978Z,138.67
2023-01-26T17:59:04.018Z,134.67
2023-01-26T18:00:35.882Z,135.00
2023-01-26T18:02:07.876Z,135.67
2023-01-26T18:03:40.962Z,136.33
2023-01-26T18:05:13.134Z,130.00
2023-01-26T18:06:45.437Z,140.67
2023-01-26T18:08:17.820Z,132.67
2023-01-26T18:09:49.977Z,147.67
2023-01-26T18:11:22.121Z,138.00
2023-01-26T18:12:54.111Z,139.33
2023-01-26T18:14:26.033Z,145.00
2023-01-26T18:15:58.312Z,151.67
2023-01-26T18:17:30.159Z,146.67
2023-01-26T18:19:04.549Z,152.00
2023-01-26T18:20:36.882Z,151.00
2023-01-26T18:22:08.772Z,142.67
2023-01-26T18:23:43.290Z,150.00
2023-01-26T18:25:17.761Z,321.33
2023-01-26T18:26:49.980Z,231.50
2023-01-26T18:28:22.042Z,198.00
2023-01-26T18:29:54.247Z,186.25
2023-01-26T18:31:31.418Z,175.50
2023-01-26T18:33:03.357Z,173.25
2023-01-26T18:34:35.264Z,169.75
2023-01-26T18:36:09.821Z,166.75
2023-01-26T18:37:43.056Z,165.00
2023-01-26T18:39:16.853Z,162.75
2023-01-26T18:40:48.785Z,160.25
2023-01-26T18:42:20.607Z,162.67
2023-01-26T18:43:53.405Z,166.33
2023-01-26T18:45:25.366Z,150.67
2023-01-26T18:46:57.314Z,156.00
2023-01-26T18:48:29.852Z,149.00
2023-01-26T18:50:01.754Z,167.50
2023-01-26T18:51:34.784Z,164.00
2023-01-26T18:53:07.340Z,158.00
2023-01-26T18:54:39.198Z,134.33
2023-01-26T18:56:12.542Z,136.33
2023-01-26T18:57:44.650Z,138.67
2023-01-26T18:59:17.967Z,139.67
2023-01-26T19:00:50.117Z,134.67
2023-01-26T19:02:22.199Z,131.33
2023-01-26T19:03:58.759Z,136.00
2023-01-26T19:05:31.174Z,135.33
2023-01-26T19:07:03.103Z,136.00
2023-01-26T19:08:35.082Z,132.67
2023-01-26T19:10:07.487Z,131.00
2023-01-26T19:11:39.582Z,132.00
2023-01-26T19:13:11.485Z,244.00
2023-01-26T19:14:43.458Z,172.00
2023-01-26T19:16:15.574Z,166.25
2023-01-26T19:17:47.484Z,154.67
2023-01-26T19:19:19.585Z,155.33
2023-01-26T19:20:58.126Z,148.67
2023-01-26T19:22:30.078Z,144.33
2023-01-26T19:24:07.823Z,135.33
2023-01-26T19:25:39.815Z,141.00
2023-01-26T19:27:11.786Z,130.33
2023-01-26T19:28:43.822Z,129.00
2023-01-26T19:30:16.070Z,272.75
2023-01-26T19:31:47.968Z,199.75
2023-01-26T19:33:28.277Z,171.75
2023-01-26T19:35:00.141Z,164.75
2023-01-26T19:36:33.273Z,160.50
2023-01-26T19:38:05.448Z,154.33
2023-01-26T19:39:37.836Z,156.00
2023-01-26T19:41:09.891Z,155.67
2023-01-26T19:42:41.820Z,149.67
2023-01-26T19:44:13.748Z,145.67
2023-01-26T19:45:49.845Z,142.33
2023-01-26T19:47:21.745Z,137.33
2023-01-26T19:48:53.654Z,137.33
2023-01-26T19:50:25.583Z,134.33
2023-01-26T19:51:57.559Z,134.67
2023-01-26T19:53:30.793Z,159.00
2023-01-26T19:55:02.792Z,145.00
2023-01-26T19:56:38.106Z,259.20
2023-01-26T19:58:10.541Z,180.75
2023-01-26T19:59:42.391Z,167.25
2023-01-26T20:01:14.475Z,156.67
2023-01-26T20:02:47.465Z,147.33
2023-01-26T20:04:19.348Z,136.00
2023-01-26T20:05:51.370Z,137.00
2023-01-26T20:07:23.258Z,130.67
2023-01-26T20:08:55.328Z,122.67
2023-01-26T20:10:27.326Z,125.67
2023-01-26T20:11:59.203Z,118.50
2023-01-26T20:13:31.484Z,116.25
2023-01-26T20:15:04.241Z,114.50
2023-01-26T20:16:36.359Z,113.25
2023-01-26T20:18:08.292Z,111.00
2023-01-26T20:19:40.161Z,108.75
2023-01-26T20:21:12.112Z,120.25
2023-01-26T20:22:43.996Z,106.75
2023-01-26T20:24:16.021Z,99.75
2023-01-26T20:25:47.963Z,102.75
2023-01-26T20:27:20.017Z,99.00
2023-01-26T20:28:52.004Z,106.25
2023-01-26T20:30:24.069Z,103.50
2023-01-26T20:31:56.187Z,101.00
2023-01-26T20:33:28.224Z,106.25
2023-01-26T20:35:00.161Z,104.25
2023-01-26T20:36:33.209Z,97.75
2023-01-26T20:38:05.024Z,97.25
2023-01-26T20:39:37.032Z,98.00
2023-01-26T20:41:10.220Z,95.50
2023-01-26T20:42:42.045Z,92.50
2023-01-26T20:44:14.167Z,89.50
2023-01-26T20:45:46.034Z,89.75
2023-01-26T20:47:17.909Z,86.75
2023-01-26T20:48:51.971Z,84.25
2023-01-26T20:50:23.952Z,76.50
2023-01-26T20:51:56.094Z,90.50
2023-01-26T20:53:27.968Z,93.00
2023-01-26T20:55:00.102Z,104.25
2023-01-26T20:56:32.689Z,104.00
2023-01-26T20:58:06.793Z,107.50
2023-01-26T20:59:38.854Z,106.25
2023-01-26T21:01:15.361Z,145.00
2023-01-26T21:02:47.274Z,125.50
2023-01-26T21:04:19.145Z,101.50
2023-01-26T21:05:51.022Z,107.00
2023-01-26T21:07:22.970Z,107.75
2023-01-26T21:08:56.465Z,111.25
2023-01-26T21:10:28.388Z,105.75
2023-01-26T21:12:00.393Z,102.50
2023-01-26T21:13:32.263Z,108.75
2023-01-26T21:15:07.507Z,101.25
2023-01-26T21:16:39.557Z,105.00
2023-01-26T21:18:11.508Z,97.75
2023-01-26T21:19:43.300Z,99.25
2023-01-26T21:21:17.794Z,98.25
2023-01-26T21:22:49.855Z,97.00
2023-01-26T21:24:22.275Z,93.00
2023-01-26T21:26:01.353Z,94.50
2023-01-26T21:27:33.303Z,88.50
2023-01-26T21:29:05.707Z,95.25
2023-01-26T21:30:37.591Z,95.25
2023-01-26T21:32:09.584Z,92.00
2023-01-26T21:33:45.797Z,98.75
2023-01-26T21:35:18.013Z,102.50
2023-01-26T21:36:49.890Z,96.50
2023-01-26T21:38:21.747Z,100.50
2023-01-26T21:39:53.660Z,100.50
2023-01-26T21:41:48.653Z,90.00
2023-01-26T21:43:20.539Z,95.25
2023-01-26T21:45:10.938Z,89.00
2023-01-26T21:46:44.688Z,90.00
2023-01-26T21:48:28.424Z,97.75
2023-01-26T21:50:00.297Z,85.25
2023-01-26T21:51:51.107Z,89.00
2023-01-26T21:53:23.014Z,93.25
2023-01-26T21:54:54.934Z,84.75
2023-01-26T21:56:26.778Z,71.00
2023-01-26T21:58:17.200Z,81.75
2023-01-26T21:59:49.097Z,88.00
2023-01-26T22:01:21.327Z,87.25
2023-01-26T22:02:54.643Z,90.50
2023-01-26T22:04:28.574Z,94.75
2023-01-26T22:06:00.713Z,94.75
2023-01-26T22:07:32.676Z,93.00
2023-01-26T22:09:05.310Z,90.75
2023-01-26T22:10:37.264Z,85.50
2023-01-26T22:12:09.169Z,80.50
2023-01-26T22:13:42.475Z,85.50
2023-01-26T22:15:14.633Z,91.75
2023-01-26T22:16:46.634Z,106.00
2023-01-26T22:18:18.627Z,99.00
2023-01-26T22:19:50.693Z,83.50
2023-01-26T22:21:22.741Z,80.00
2023-01-26T22:22:54.797Z,86.75
2023-01-26T22:24:26.795Z,90.50
2023-01-26T22:25:58.764Z,96.75
2023-01-26T22:27:30.693Z,89.25
2023-01-26T22:29:04.131Z,93.00
2023-01-26T22:30:36.761Z,89.50
2023-01-26T22:32:08.817Z,86.75
2023-01-26T22:33:40.774Z,84.00
2023-01-26T22:35:12.638Z,91.50
2023-01-26T22:36:44.476Z,82.75
2023-01-26T22:38:16.443Z,79.75
2023-01-26T22:39:49.205Z,82.00
2023-01-26T22:41:25.687Z,80.50
2023-01-26T22:42:57.623Z,71.75
2023-01-26T22:44:29.495Z,83.50
2023-01-26T22:46:05.018Z,77.75
2023-01-26T22:47:38.680Z,71.80
2023-01-26T22:49:10.561Z,169.75
2023-01-26T22:50:42.806Z,145.00
2023-01-26T22:52:14.611Z,120.00
2023-01-26T22:53:46.594Z,108.50
2023-01-26T22:55:18.489Z,94.00
2023-01-26T22:56:50.349Z,91.00
2023-01-26T22:58:22.206Z,82.50
2023-01-26T22:59:54.227Z,89.50
2023-01-26T23:01:29.829Z,79.75
2023-01-26T23:03:02.894Z,83.00
2023-01-26T23:04:34.809Z,76.00
2023-01-26T23:06:07.591Z,71.25
2023-01-26T23:07:39.421Z,78.25
2023-01-26T23:09:11.333Z,69.25
2023-01-26T23:10:43.336Z,77.00
2023-01-26T23:12:15.362Z,70.40
2023-01-26T23:13:48.218Z,67.80
2023-01-26T23:15:20.071Z,73.60
2023-01-26T23:16:52.030Z,71.00
2023-01-26T23:18:23.954Z,65.80
2023-01-26T23:19:56.298Z,61.40
2023-01-26T23:21:28.585Z,62.20
2023-01-26T23:23:00.454Z,61.00
2023-01-26T23:24:32.400Z,59.00
2023-01-26T23:26:04.369Z,53.50
2023-01-26T23:27:36.304Z,57.25
2023-01-26T23:29:08.141Z,53.00
2023-01-26T23:30:40.042Z,50.25
2023-01-26T23:32:11.890Z,54.50
2023-01-26T23:33:43.809Z,48.25
